Terminal Aerodrome Forecast
Issued by NWS Northern Indiana

Home | Current Version | Previous Version | Graphics & Text | Print | Product List | Glossary On
Versions: 1 2 3 4 5 6 7 8 9 10 11 12 13 14 15
000
FTUS43 KIWX 301720
TAFFWA
TAF
KFWA 301720Z 3018/3118 29012G18KT P6SM SCT050
     FM310200 27005KT P6SM SKC
     FM311600 26009G16KT P6SM SCT040=

USA.gov is the U.S. government's official web portal to all federal, state and local government web resources and services.